AirNav   Everest Fuels
 
 597 users online  

20MD Anne Arundel Medical Center Heliport
Annapolis, Maryland, USA

GOING TO ANNAPOLIS?


FAA INFORMATION EFFECTIVE 18 JUNE 2020

Location

FAA Identifier: 20MD
Lat/Long: 38-59-26.4000N 076-32-03.0000W
38-59.440000N 076-32.050000W
38.9906667,-76.5341667
(estimated)
Elevation: 170 ft. / 52 m (estimated)
From city: 3 miles WNW of ANNAPOLIS, MD
Time zone: UTC -4 (UTC -5 during Standard Time)
Zip code: 21401

Heliport Operations

Heliport use: Private use. Permission required prior to landing
Activation date: 11/2007
Control tower: no
ARTCC: WASHINGTON CENTER
FSS: LEESBURG FLIGHT SERVICE STATION
Attendance: CONTINUOUS
Wind indicator: lighted
Segmented circle: no
Lights: FOR HELI LGTS CALL 443-481-4773.
Beacon: white-green-yellow (heliport)
Operates sunset to sunrise.

Heliport Communications

WX AWOS-3 at W29 (10 nm E): 120.575 (410-643-8795)
WX AWOS-3 at FME (12 nm NW): 123.925
WX ASOS at BWI (13 nm NW): PHONE 410-691-1278
WX AWOS-3 at CGS (18 nm W): 121.225 (301-864-5497)

Nearby radio navigation aids

VOR radial/distance  VOR name  Freq  Var
BALr162/12.3BALTIMORE VORTAC115.1011W
ADWr065/19.0ANDREWS VORTAC113.1010W
OTTr040/19.7NOTTINGHAM VORTAC113.7010W
DCAr080/24.7WASHINGTON VOR/DME111.0009W
EMIr154/36.6WESTMINSTER VORTAC117.9008W

 
NDB name  Hdg/Dist  Freq  Var  ID
ELLICOTT159/21.137111WFND ..-. -. -..
OXONN071/26.733211WDCA -.. -.-. .-
GEORGETOWN091/27.832309WGTN --. - -.
DAVEE063/33.422309WDAA -.. .- .-

Heliport Services

Runway Information

Helipad H1

Dimensions: 55 x 60 ft. / 17 x 18 m
Surface: ROOF/TOP
Runway edge lights: PERI
LIGHTED ELEVATOR TWR 33 FT SOUTH OF PAD.
Latitude: 38-59.440000N
Longitude: 076-32.050000W
Elevation: 170.0 ft.
Traffic pattern: leftleft

Heliport Ownership and Management from official FAA records

Ownership: Privately-owned
Owner: ANNE ARUNDEL MEDICAL CENTER
2001 MEDICAL PARKWAY
ANNAPOLIS, MD 21401
Phone 443-481-1000
Manager: ROBERT THOMPSON
2001 MEDICAL PARKWAY
ANNAPOLIS, MD 21401
Phone (443) 481-4798

Additional Remarks

NOISE ABATEMENT PROCEDURES IN EFFECT AVOID RESIDENTIAL AREA LCTD 1100 FT NE OF PAD.
FOR CD CTC POTOMAC APCH AT 866-429-5882.

Instrument Procedures

There are no published instrument procedures at 20MD.

Some nearby airports with instrument procedures:

KANP - Lee Airport (3 nm SW)
W29 - Bay Bridge Airport (10 nm E)
W00 - Freeway Airport (12 nm W)
KFME - Tipton Airport (12 nm NW)
KBWI - Baltimore/Washington International Thurgood Marshall Airport (13 nm NW)
KCGS - College Park Airport (18 nm W)
KADW - Joint Base Andrews (19 nm SW)
 
Loc | Ops | Rwys | IFR | FBO | Links
Com | Nav | Svcs | Stats | Notes
Aerial photo
No photo
 
Airport distance calculator
Flying to Anne Arundel Medical Center Heliport? Find the distance to fly.

From to 20MD

Sunrise and sunset
Times for 13-Jul-2020
 Local
(UTC-4)
 Zulu
(UTC)
Morning civil twilight05:2209:22
Sunrise05:5309:53
Sunset20:3100:31
Evening civil twilight21:0201:02

Current date and time
Zulu (UTC)  13-Jul-2020 04:45:01
Local (UTC-4)  13-Jul-2020 00:45:01
 
METAR
KNAK 
2nm E 
130354Z AUTO VRB04KT 10SM SCT110 24/20 A2978 RMK AO2 RAB06E30 SLP085 P0000 T02440200 $
KW29 
10nm E 
130435Z AUTO 29004KT 10SM CLR 25/22 A2978 RMK AO2
KFME 
12nm NW 
130435Z AUTO 00000KT 5SM CLR 20/20 A2981 RMK AO1
KBWI 
13nm NW 
130354Z 29003KT 10SM FEW037 BKN150 BKN190 BKN250 23/21 A2978 RMK AO2 SLP084 OCNL LTGIC DSNT E-SE CB DSNT E-SE MOV NE T02280211
KCGS 
18nm W 
130435Z AUTO 00000KT 10SM CLR 22/19 A2979 RMK AO1 T02200185
KADW 
19nm SW 
130356Z AUTO 29005KT 10SM SCT120 23/20 A2979 RMK AO2 RAE0256DZB0256E0258 SLP092 P0000 T02270204 FZRANO $
TAF
KBWI 
13nm NW 
122100Z 1221/1324 17006KT P6SM FEW060 BKN110 TEMPO 1221/1224 6SM SHRA BKN060 FM130100 21005KT P6SM BKN060 FM130600 VRB03KT P6SM BKN100 FM131900 29005KT P6SM FEW050 BKN060
KADW 
19nm SW 
130200Z 1302/1407 VRB06KT 9999 SCT050 BKN070 QNH2975INS TEMPO 1302/1304 -TSRA SCT050CB BECMG 1308/1309 31006KT 9999 BKN050 QNH2980INS BECMG 1314/1315 02006KT 9999 SKC QNH2984INS TX32/1321Z TN23/1309Z
NOTAMs
Click for the latest NOTAMs
NOTAMs are issued by the DoD/FAA and will open in a separate window not controlled by AirNav.

 

 
 

Would you like to see your business listed on this page?

 If your business provides an interesting product or service to pilots, flight crews, aircraft, or users of the Anne Arundel Medical Center Heliport, you should consider listing it here.  To start the listing process, click on the button below
 
Add a business
 

Other Pages about Anne Arundel Medical Center Heliport

Update a link
 
Copyright © AirNav, LLC. All rights reserved. Privacy Policy  Contact